Etusivu
METAR-TAF:

METAR-TAF

Lentoasemat :

Baker Municipal Airport

Baker, Montana, Yhdysvallat

Leveyspiiri: 46-20-52N, Pituuspiiri: 104-15-27W, korkeus merenpinnasta: 905 m

Tämänhetkinen sää

Tämä raportti tehtiin 59 minuuttia sitten, kello 02.51 UTC
Tuuli 4 kn eri suunnista
Lämpötila 9°C
Kosteus 49%
Ilmanpaine 1017 hPa
Näkyvyys: 16.1 km
selkeää

METAR: KBHK 210251Z AUTO VRB04KT 10SM CLR 09/M01 A3002 RMK AO2 SLP178 T00941006 56017

Aika: 21:50 (03:50 UTC)


TAF: puuttuu

Säähavainnot ja -ennusteet yli 4000 lentoasemalta (METAR- ja TAF-raportit).

Käytössä olevat sääasemat on merkitty karttaan keltaisilla ja punaisilla pisteillä.

Aseta hiiri pisteen päälle nähdäksesi sääaseman nimen.

Klikkaa sitten nähdäksesi säähavainnot ja -ennusteet.

Kartan vaihtaminen: klikkaa mustalla rastilla varustettuja vihreitä pisteitä, niin voit zoomata sisään; viivalla varustettua vihreää pistettä, niin voit zoomata ulos tai vihreitä nuolia, niin pääset viereisille kartoille.


METAR-TAF: